Time;durP1;ratioP1;P1;durP2;ratioP2;P2;SDS_P1;SDS_P2;PMS_P1;PMS_P2;Temp;Humidity;BMP_temperature;BMP_pressure;BME280_temperature;BME280_humidity;BME280_pressure;Samples;Min_cycle;Max_cycle;Signal;HPM_P1;HPM_P2
2021/03/08 00:00:20;;;;;;;18.13;13.07;;;1.00;99.90;;;;;;4908956;29;21260;-93
2021/03/08 00:02:46;;;;;;;18.60;12.40;;;0.90;99.90;;;;;;4906053;29;20322;-92
2021/03/08 00:05:13;;;;;;;20.17;14.43;;;0.80;99.90;;;;;;4921550;29;20460;-93
2021/03/08 00:07:40;;;;;;;18.33;12.83;;;0.70;99.90;;;;;;4908953;29;20992;-93
2021/03/08 00:10:06;;;;;;;18.53;13.00;;;0.70;99.90;;;;;;4906921;29;20453;-92
2021/03/08 00:12:32;;;;;;;22.50;14.13;;;0.70;99.90;;;;;;4901852;29;20447;-92
2021/03/08 00:14:58;;;;;;;23.13;15.60;;;0.60;99.90;;;;;;4906822;29;20463;-93
2021/03/08 00:17:24;;;;;;;20.33;13.60;;;0.50;99.90;;;;;;4906749;29;20255;-92
2021/03/08 00:19:50;;;;;;;18.00;12.80;;;0.50;99.90;;;;;;4920363;29;20452;-92
2021/03/08 00:22:15;;;;;;;17.90;13.17;;;0.50;99.90;;;;;;4904288;29;20965;-93
2021/03/08 00:24:41;;;;;;;23.27;13.93;;;0.50;99.90;;;;;;4906848;29;20645;-92
2021/03/08 00:27:07;;;;;;;20.63;13.30;;;0.60;99.90;;;;;;4902632;29;20228;-92
2021/03/08 00:29:33;;;;;;;17.90;12.47;;;0.60;99.90;;;;;;4898174;29;20291;-93
2021/03/08 00:31:59;;;;;;;17.53;12.40;;;0.50;99.90;;;;;;4906983;29;20933;-92
2021/03/08 00:34:24;;;;;;;16.00;12.03;;;0.50;99.90;;;;;;4904784;29;20771;-91
2021/03/08 00:36:50;;;;;;;22.17;13.47;;;0.50;99.90;;;;;;4901329;29;20214;-90
2021/03/08 00:39:16;;;;;;;18.73;13.00;;;0.40;99.90;;;;;;4904551;29;20559;-90
2021/03/08 00:41:42;;;;;;;16.50;12.40;;;0.40;99.90;;;;;;4920917;29;20554;-89
2021/03/08 00:44:07;;;;;;;17.80;11.87;;;0.40;99.90;;;;;;4901757;29;20325;-90
2021/03/08 00:46:35;;;;;;;19.97;12.90;;;0.30;99.90;;;;;;4902820;29;20200;-90
2021/03/08 00:49:01;;;;;;;20.67;12.20;;;0.30;99.90;;;;;;4904026;29;21509;-91
2021/03/08 00:51:26;;;;;;;16.40;12.57;;;0.20;99.90;;;;;;4899679;29;20451;-91
2021/03/08 00:53:52;;;;;;;20.70;13.27;;;0.30;99.90;;;;;;4903851;29;20195;-89
2021/03/08 00:56:17;;;;;;;19.50;14.23;;;0.30;99.90;;;;;;4903768;29;20200;-89
2021/03/08 00:58:43;;;;;;;17.70;12.50;;;0.30;99.90;;;;;;4916132;29;20187;-90
2021/03/08 01:01:09;;;;;;;16.17;12.10;;;0.20;99.90;;;;;;4904021;29;20601;-90
2021/03/08 01:03:34;;;;;;;18.87;12.97;;;0.30;99.90;;;;;;4904402;29;20268;-91
2021/03/08 01:06:00;;;;;;;20.40;13.50;;;0.30;99.90;;;;;;4899721;29;20571;-89
2021/03/08 01:08:26;;;;;;;19.90;13.43;;;0.30;99.90;;;;;;4899538;29;20628;-90
2021/03/08 01:10:51;;;;;;;17.47;13.60;;;0.20;99.90;;;;;;4901469;29;20287;-89
2021/03/08 01:13:17;;;;;;;19.97;13.43;;;0.20;99.90;;;;;;4903265;29;21250;-90
2021/03/08 01:15:45;;;;;;;18.37;12.60;;;0.20;99.90;;;;;;4903610;29;20610;-91
2021/03/08 01:18:14;;;;;;;21.93;12.43;;;0.20;99.90;;;;;;4904621;29;20187;-91
2021/03/08 01:20:39;;;;;;;19.27;12.37;;;0.20;99.90;;;;;;4905133;29;20526;-92
2021/03/08 01:23:05;;;;;;;17.50;11.70;;;0.30;99.90;;;;;;4903278;29;20571;-93
2021/03/08 01:25:31;;;;;;;15.50;10.90;;;0.20;99.90;;;;;;4904355;29;20191;-91
2021/03/08 01:27:57;;;;;;;16.90;11.93;;;0.20;99.90;;;;;;4904725;29;20194;-92
2021/03/08 01:30:27;;;;;;;19.40;12.17;;;0.10;99.90;;;;;;4902963;29;20468;-92
2021/03/08 01:32:52;;;;;;;19.02;11.77;;;0.00;99.90;;;;;;4920775;29;20464;-93
2021/03/08 01:35:21;;;;;;;15.23;11.33;;;0.10;99.90;;;;;;4906692;29;20183;-92
2021/03/08 01:37:47;;;;;;;16.45;12.50;;;0.10;99.90;;;;;;4902181;29;20197;-93
2021/03/08 01:40:14;;;;;;;16.07;11.50;;;0.00;99.90;;;;;;4904399;29;20188;-93
2021/03/08 01:42:41;;;;;;;17.50;12.60;;;0.00;99.90;;;;;;4905112;29;20275;-92
2021/03/08 01:45:09;;;;;;;17.30;11.97;;;0.00;99.90;;;;;;4899866;29;20539;-92
2021/03/08 01:47:35;;;;;;;18.23;11.93;;;-0.10;99.90;;;;;;4902994;29;20548;-91
2021/03/08 01:50:02;;;;;;;18.23;12.03;;;-0.10;99.90;;;;;;4904367;29;20298;-92
2021/03/08 01:52:27;;;;;;;17.13;11.38;;;-0.20;99.90;;;;;;4902935;29;20994;-93
2021/03/08 01:54:54;;;;;;;15.20;12.43;;;-0.30;99.90;;;;;;4903296;29;20890;-93
2021/03/08 01:57:20;;;;;;;17.27;12.97;;;-0.30;99.90;;;;;;4901472;29;20218;-92
2021/03/08 01:59:46;;;;;;;18.50;12.02;;;-0.30;99.90;;;;;;4898849;29;20590;-93
2021/03/08 02:02:12;;;;;;;19.63;12.70;;;-0.30;99.90;;;;;;4906605;29;20183;-91
2021/03/08 02:04:37;;;;;;;18.07;12.00;;;-0.30;99.90;;;;;;4904677;29;20184;-92
2021/03/08 02:07:03;;;;;;;15.27;11.57;;;-0.30;99.90;;;;;;4931133;28;20558;-92
2021/03/08 02:09:29;;;;;;;18.27;12.67;;;-0.30;99.90;;;;;;4904221;29;20287;-92
2021/03/08 02:12:06;;;;;;;17.50;11.77;;;-0.30;99.90;;;;;;4916801;29;20541;-91
2021/03/08 02:15:04;;;;;;;17.20;11.73;;;-0.40;99.90;;;;;;4904685;29;20221;-91
2021/03/08 02:17:50;;;;;;;17.95;11.88;;;-0.40;99.90;;;;;;4931894;28;20188;-91
2021/03/08 02:20:37;;;;;;;13.88;10.60;;;-0.50;99.90;;;;;;4906537;29;20194;-91
2021/03/08 02:23:08;;;;;;;13.82;10.20;;;-0.60;99.90;;;;;;4903089;29;20219;-92
2021/03/08 02:25:36;;;;;;;17.08;11.90;;;-0.70;99.90;;;;;;4901558;29;20507;-91
2021/03/08 02:28:46;;;;;;;17.00;11.35;;;-0.60;99.90;;;;;;4903042;29;20188;-91
2021/03/08 02:31:20;;;;;;;18.25;12.05;;;-0.80;99.90;;;;;;4853185;29;20258;-92
2021/03/08 02:34:03;;;;;;;16.30;11.30;;;-0.90;99.90;;;;;;4916620;29;20192;-90
2021/03/08 02:36:33;;;;;;;17.23;11.68;;;-1.00;99.90;;;;;;4901879;29;21110;-91
2021/03/08 02:39:09;;;;;;;16.25;12.35;;;-1.00;99.90;;;;;;4898150;29;20199;-92
2021/03/08 02:41:36;;;;;;;18.77;11.43;;;-0.80;99.90;;;;;;4905467;29;20296;-91
2021/03/08 02:44:08;;;;;;;16.50;12.20;;;-0.80;99.90;;;;;;4904637;29;20719;-91
2021/03/08 02:46:36;;;;;;;15.45;12.40;;;-0.80;99.90;;;;;;4904765;29;20199;-91
2021/03/08 02:49:24;;;;;;;16.90;11.52;;;-0.80;99.90;;;;;;4901305;29;20214;-92
2021/03/08 02:51:56;;;;;;;16.25;11.90;;;-0.80;99.90;;;;;;4903938;29;20265;-92
2021/03/08 02:54:25;;;;;;;18.75;11.50;;;-0.70;99.90;;;;;;4898478;29;20757;-91
2021/03/08 02:56:55;;;;;;;15.45;10.65;;;-0.80;99.90;;;;;;4901637;29;20211;-91
2021/03/08 02:59:22;;;;;;;15.93;11.15;;;-0.80;99.90;;;;;;4903524;29;20190;-91
2021/03/08 03:01:49;;;;;;;13.80;11.07;;;-0.80;99.90;;;;;;4903360;29;20230;-91
2021/03/08 03:04:17;;;;;;;14.30;10.85;;;-0.80;99.90;;;;;;4903574;29;20222;-91
2021/03/08 03:06:45;;;;;;;16.23;11.23;;;-0.80;99.90;;;;;;4900704;29;20179;-91
2021/03/08 03:09:13;;;;;;;18.33;10.27;;;-0.90;99.90;;;;;;4900289;29;20594;-92
2021/03/08 03:11:46;;;;;;;16.08;10.30;;;-0.90;99.90;;;;;;4918440;29;20195;-90
2021/03/08 03:14:13;;;;;;;17.63;11.65;;;-0.90;99.90;;;;;;4900971;29;20212;-90
2021/03/08 03:16:41;;;;;;;16.05;11.20;;;-0.90;99.90;;;;;;4905517;29;20204;-91
2021/03/08 03:19:08;;;;;;;17.10;12.85;;;-0.90;99.90;;;;;;4901498;29;20200;-91
2021/03/08 03:21:36;;;;;;;18.20;11.60;;;-0.80;99.90;;;;;;4903376;29;20210;-92
2021/03/08 03:24:03;;;;;;;17.73;12.27;;;-0.80;99.90;;;;;;4903355;29;20223;-90
2021/03/08 03:26:30;;;;;;;17.05;12.40;;;-0.80;99.90;;;;;;4903989;29;20621;-91
2021/03/08 03:28:56;;;;;;;17.80;12.43;;;-0.90;99.90;;;;;;4905406;29;20282;-91
2021/03/08 03:31:24;;;;;;;18.50;12.10;;;-0.90;99.90;;;;;;4900538;29;20179;-91
2021/03/08 03:33:51;;;;;;;18.02;12.13;;;-0.90;99.90;;;;;;4901276;29;20365;-93
2021/03/08 03:36:18;;;;;;;19.15;11.43;;;-0.90;99.90;;;;;;4885698;29;20204;-92
2021/03/08 03:38:44;;;;;;;18.98;12.70;;;-0.90;99.90;;;;;;4901613;29;20204;-93
2021/03/08 03:41:10;;;;;;;15.88;12.00;;;-1.10;99.90;;;;;;4903933;29;20835;-93
2021/03/08 03:43:36;;;;;;;14.87;11.80;;;-1.10;99.90;;;;;;4899604;29;20220;-92
2021/03/08 03:46:03;;;;;;;15.23;11.77;;;-1.00;99.90;;;;;;4907532;29;20212;-92
2021/03/08 03:48:29;;;;;;;17.95;12.23;;;-1.00;99.90;;;;;;4904179;29;20563;-91
2021/03/08 03:50:55;;;;;;;16.77;12.10;;;-1.10;99.90;;;;;;4905820;29;20188;-91
2021/03/08 03:53:20;;;;;;;16.40;10.97;;;-1.20;99.90;;;;;;4904851;29;20207;-91
2021/03/08 03:55:46;;;;;;;18.13;12.57;;;-1.30;99.90;;;;;;4904113;29;20462;-91
2021/03/08 03:58:24;;;;;;;16.73;11.57;;;-1.40;99.90;;;;;;4905580;29;20230;-90
2021/03/08 04:01:00;;;;;;;23.30;12.43;;;-1.40;99.90;;;;;;4914092;29;20466;-91
2021/03/08 04:03:32;;;;;;;15.82;11.80;;;-1.30;99.90;;;;;;4905231;29;20694;-91
2021/03/08 04:06:00;;;;;;;17.23;12.13;;;-1.20;99.90;;;;;;4905716;29;20187;-91
2021/03/08 04:08:27;;;;;;;19.25;13.05;;;-1.30;99.90;;;;;;4905690;29;20191;-91
2021/03/08 04:10:55;;;;;;;19.27;12.38;;;-1.30;99.90;;;;;;4934012;28;20244;-92
2021/03/08 04:13:27;;;;;;;15.30;11.35;;;-1.30;99.90;;;;;;4907089;29;20203;-92
2021/03/08 04:15:55;;;;;;;21.75;12.10;;;-1.30;99.90;;;;;;4906534;29;20196;-91
2021/03/08 04:18:23;;;;;;;18.48;13.13;;;-1.20;99.90;;;;;;4906774;29;20197;-94
2021/03/08 04:20:49;;;;;;;18.92;12.63;;;-1.20;99.90;;;;;;4909314;29;20521;-93
2021/03/08 04:23:17;;;;;;;19.80;13.38;;;-1.20;99.90;;;;;;4908627;29;20223;-95
2021/03/08 04:25:46;;;;;;;17.08;12.07;;;-1.30;99.90;;;;;;4909069;29;20190;-94
2021/03/08 04:28:13;;;;;;;17.33;12.27;;;-1.30;99.90;;;;;;4911555;29;20268;-93
2021/03/08 04:30:41;;;;;;;19.92;13.25;;;-1.40;99.90;;;;;;4901932;29;20192;-93
2021/03/08 04:33:08;;;;;;;17.50;12.23;;;-1.40;99.90;;;;;;4906542;29;20184;-94
2021/03/08 04:35:34;;;;;;;17.60;13.13;;;-1.50;99.90;;;;;;4907998;29;21815;-93
2021/03/08 04:38:00;;;;;;;17.95;12.98;;;-1.60;99.90;;;;;;4905729;29;20564;-91
2021/03/08 04:40:26;;;;;;;20.65;14.85;;;-1.70;99.90;;;;;;4902588;29;20196;-91
2021/03/08 04:42:53;;;;;;;21.60;13.47;;;-1.60;99.90;;;;;;4906234;29;20551;-90
2021/03/08 04:45:20;;;;;;;22.00;13.60;;;-1.60;99.90;;;;;;4904153;29;20450;-91
2021/03/08 04:47:47;;;;;;;17.95;12.73;;;-1.40;99.90;;;;;;4903998;29;20281;-92
2021/03/08 04:50:14;;;;;;;20.80;13.90;;;-1.40;99.90;;;;;;4901006;29;20187;-90
2021/03/08 04:52:45;;;;;;;17.75;13.18;;;-1.30;99.90;;;;;;4903778;29;20195;-93
2021/03/08 04:55:11;;;;;;;16.95;12.15;;;-1.40;99.90;;;;;;4904271;29;20204;-90
2021/03/08 04:57:39;;;;;;;20.02;13.13;;;-1.40;99.90;;;;;;4902610;29;20198;-91
2021/03/08 05:00:07;;;;;;;21.05;14.80;;;-1.50;99.90;;;;;;4901915;29;20202;-90
2021/03/08 05:02:35;;;;;;;17.17;12.57;;;-1.40;99.90;;;;;;4902513;29;20203;-90
2021/03/08 05:05:03;;;;;;;18.27;13.10;;;-1.40;99.90;;;;;;4932545;28;20250;-89
2021/03/08 05:07:30;;;;;;;23.42;13.77;;;-1.40;99.90;;;;;;4902639;29;20512;-92
2021/03/08 05:09:59;;;;;;;19.45;13.45;;;-1.40;99.90;;;;;;4907325;29;20695;-92
2021/03/08 05:12:26;;;;;;;17.75;13.52;;;-1.50;99.90;;;;;;4905201;29;20203;-96
2021/03/08 05:14:54;;;;;;;17.17;13.10;;;-1.50;99.90;;;;;;4904446;29;20212;-94
2021/03/08 05:17:22;;;;;;;19.13;13.75;;;-1.50;99.90;;;;;;4901935;29;20202;-81
2021/03/08 05:19:48;;;;;;;18.27;13.05;;;-1.60;99.90;;;;;;4899218;29;20331;-81
2021/03/08 05:22:16;;;;;;;20.35;13.98;;;-1.60;99.90;;;;;;4901697;29;20192;-88
2021/03/08 05:24:48;;;;;;;22.77;13.82;;;-1.70;99.90;;;;;;4915341;29;20223;-85
2021/03/08 05:27:21;;;;;;;21.75;15.00;;;-1.70;99.90;;;;;;4905218;29;20200;-80
2021/03/08 05:29:48;;;;;;;22.45;14.43;;;-1.60;99.90;;;;;;4902621;29;20805;-82
2021/03/08 05:32:23;;;;;;;20.42;13.75;;;-1.60;99.90;;;;;;4904905;29;20195;-87
2021/03/08 05:34:50;;;;;;;19.98;13.48;;;-1.60;99.90;;;;;;4901116;29;20266;-86
2021/03/08 05:37:18;;;;;;;23.25;14.25;;;-1.50;99.90;;;;;;4908831;29;20279;-86
2021/03/08 05:39:48;;;;;;;20.95;14.20;;;-1.50;99.90;;;;;;4902968;29;20259;-86
2021/03/08 05:42:16;;;;;;;23.27;13.93;;;-1.60;99.90;;;;;;4908454;29;20192;-85
2021/03/08 05:44:54;;;;;;;19.75;14.13;;;-1.50;99.90;;;;;;4901282;29;20210;-85
2021/03/08 05:47:36;;;;;;;22.20;14.85;;;-1.60;99.90;;;;;;4916745;29;20234;-85
2021/03/08 05:50:23;;;;;;;19.30;13.68;;;-1.50;99.90;;;;;;4905280;29;20196;-85
2021/03/08 05:53:26;;;;;;;19.67;13.50;;;-1.50;99.90;;;;;;4905835;29;20230;-85
2021/03/08 05:56:19;;;;;;;18.75;12.60;;;-1.40;99.90;;;;;;4903189;29;20305;-85
2021/03/08 05:59:13;;;;;;;19.48;13.95;;;-1.40;99.90;;;;;;4905924;29;20545;-84
2021/03/08 06:01:50;;;;;;;25.80;14.40;;;-1.50;99.90;;;;;;4919784;29;20825;-85
2021/03/08 06:04:53;;;;;;;21.83;13.93;;;-1.40;99.90;;;;;;4902291;29;20322;-87
2021/03/08 06:07:35;;;;;;;23.85;14.88;;;-1.40;99.90;;;;;;4905283;29;20227;-86
2021/03/08 06:10:06;;;;;;;16.85;13.18;;;-1.40;99.90;;;;;;4903887;29;20217;-86
2021/03/08 06:12:36;;;;;;;17.02;12.45;;;-1.50;99.90;;;;;;4903088;29;20221;-86
2021/03/08 06:15:11;;;;;;;19.50;13.52;;;-1.60;99.90;;;;;;4900096;29;20228;-87
2021/03/08 06:17:38;;;;;;;21.55;13.10;;;-1.60;99.90;;;;;;4901663;29;20662;-86
2021/03/08 06:20:06;;;;;;;19.73;13.30;;;-1.60;99.90;;;;;;4924900;29;20267;-87
2021/03/08 06:22:32;;;;;;;20.48;13.38;;;-1.60;99.90;;;;;;4903656;29;20283;-86
2021/03/08 06:24:58;;;;;;;22.75;13.50;;;-1.70;99.90;;;;;;4903556;29;20270;-86
2021/03/08 06:27:25;;;;;;;18.90;12.45;;;-1.70;99.90;;;;;;4903497;29;20211;-86
2021/03/08 06:29:52;;;;;;;24.38;15.30;;;-1.70;99.90;;;;;;4921069;29;20197;-86
2021/03/08 06:32:19;;;;;;;20.02;13.38;;;-1.70;99.90;;;;;;4905179;29;20197;-87
2021/03/08 06:34:45;;;;;;;19.90;13.57;;;-1.60;99.90;;;;;;4900465;29;20546;-86
2021/03/08 06:37:12;;;;;;;24.02;15.20;;;-1.50;99.90;;;;;;4905453;29;20210;-87
2021/03/08 06:39:46;;;;;;;21.88;14.60;;;-1.40;99.90;;;;;;4907794;29;20187;-86
2021/03/08 06:42:15;;;;;;;21.27;14.10;;;-1.40;99.90;;;;;;4904981;29;20216;-87
2021/03/08 06:44:44;;;;;;;25.70;16.50;;;-1.20;99.90;;;;;;4904472;29;20265;-86
2021/03/08 06:47:10;;;;;;;29.77;19.55;;;-1.10;99.90;;;;;;4903290;29;20187;-87
2021/03/08 06:49:48;;;;;;;31.85;19.45;;;-1.10;99.90;;;;;;4905130;29;20195;-87
2021/03/08 06:52:17;;;;;;;31.80;19.98;;;-1.00;99.90;;;;;;4901519;29;20548;-86
2021/03/08 06:55:00;;;;;;;36.15;20.33;;;-0.80;99.90;;;;;;4919911;29;20188;-87
2021/03/08 06:57:31;;;;;;;27.45;18.30;;;-0.60;99.90;;;;;;4900715;29;20215;-88
2021/03/08 07:00:04;;;;;;;20.92;14.68;;;-0.40;99.90;;;;;;4902698;29;20722;-89
2021/03/08 07:02:37;;;;;;;24.58;16.80;;;-0.30;99.90;;;;;;4901893;29;20228;-88
2021/03/08 07:05:03;;;;;;;39.25;23.88;;;-0.20;99.90;;;;;;4898996;29;20188;-89
2021/03/08 07:07:28;;;;;;;50.05;30.27;;;-0.20;99.90;;;;;;4898427;29;20193;-86
2021/03/08 07:09:54;;;;;;;47.53;31.47;;;-0.20;99.90;;;;;;4904976;29;20188;-86
2021/03/08 07:12:21;;;;;;;35.03;24.37;;;-0.10;99.90;;;;;;4929741;28;20266;-86
2021/03/08 07:15:03;;;;;;;33.58;20.88;;;-0.10;99.90;;;;;;4930950;28;20207;-87
2021/03/08 07:17:38;;;;;;;31.00;20.92;;;0.10;99.90;;;;;;4902696;29;20207;-87
2021/03/08 07:20:12;;;;;;;30.92;20.10;;;0.20;99.90;;;;;;4904674;29;20230;-88
2021/03/08 07:22:39;;;;;;;24.10;16.67;;;0.40;99.90;;;;;;4907262;29;20623;-88
2021/03/08 07:25:28;;;;;;;20.67;14.40;;;0.60;99.90;;;;;;4905803;29;21091;-91
2021/03/08 07:27:58;;;;;;;19.95;13.88;;;0.50;99.90;;;;;;4920903;29;20443;-90
2021/03/08 07:30:28;;;;;;;19.63;14.07;;;0.40;99.90;;;;;;4904747;29;20188;-89
2021/03/08 07:32:56;;;;;;;20.77;15.00;;;0.50;99.90;;;;;;4907172;29;20184;-91
2021/03/08 07:35:32;;;;;;;19.60;13.75;;;0.50;99.90;;;;;;4909679;29;20584;-90
2021/03/08 07:37:58;;;;;;;20.25;14.82;;;0.60;99.90;;;;;;4921342;29;20278;-88
2021/03/08 07:40:24;;;;;;;22.77;14.50;;;0.70;99.90;;;;;;4910987;29;20278;-89
2021/03/08 07:42:50;;;;;;;24.93;14.90;;;0.60;99.90;;;;;;4908776;29;20317;-87
2021/03/08 07:45:16;;;;;;;21.83;14.47;;;0.80;99.90;;;;;;4905171;29;20498;-87
2021/03/08 07:47:42;;;;;;;21.10;14.30;;;1.00;99.90;;;;;;4905530;29;20444;-88
2021/03/08 07:50:25;;;;;;;18.33;13.77;;;1.20;99.90;;;;;;4907457;29;20796;-87
2021/03/08 07:52:51;;;;;;;21.07;14.03;;;1.30;99.90;;;;;;4905816;29;20989;-87
2021/03/08 07:55:18;;;;;;;22.23;15.13;;;1.30;99.90;;;;;;4905223;29;20431;-88
2021/03/08 07:57:45;;;;;;;22.53;15.00;;;1.50;99.90;;;;;;4907214;29;20450;-88
2021/03/08 08:00:11;;;;;;;20.30;15.03;;;1.80;99.90;;;;;;4905145;29;20206;-88
2021/03/08 08:02:37;;;;;;;19.30;13.80;;;2.00;99.90;;;;;;4905486;29;20488;-88
2021/03/08 08:05:04;;;;;;;19.40;13.80;;;2.20;99.90;;;;;;4906245;29;20535;-89
2021/03/08 08:07:38;;;;;;;20.97;15.77;;;2.50;99.90;;;;;;4907902;29;20187;-89
2021/03/08 08:10:05;;;;;;;19.63;13.93;;;2.70;99.90;;;;;;4906488;29;21125;-89
2021/03/08 08:12:33;;;;;;;19.97;15.80;;;2.90;99.90;;;;;;4904941;29;20742;-90
2021/03/08 08:15:04;;;;;;;19.00;14.60;;;3.00;99.90;;;;;;4906354;29;20852;-89
2021/03/08 08:17:34;;;;;;;23.97;16.13;;;3.20;99.90;;;;;;4904180;29;20558;-90
2021/03/08 08:20:03;;;;;;;22.43;15.87;;;3.40;99.90;;;;;;4922129;29;20483;-90
2021/03/08 08:22:31;;;;;;;17.73;14.60;;;3.40;99.00;;;;;;4906404;29;20478;-88
2021/03/08 08:25:08;;;;;;;20.00;15.23;;;3.50;98.60;;;;;;4903895;29;20547;-93
2021/03/08 08:27:39;;;;;;;20.97;15.33;;;3.70;99.60;;;;;;4907512;29;20451;-91
2021/03/08 08:30:51;;;;;;;19.40;14.73;;;3.80;98.40;;;;;;4904488;29;20449;-93
2021/03/08 08:33:27;;;;;;;19.53;16.10;;;3.90;99.10;;;;;;4919747;29;20453;-92
2021/03/08 08:36:17;;;;;;;21.93;16.80;;;4.10;99.90;;;;;;4904100;29;20477;-92
2021/03/08 08:39:07;;;;;;;19.87;17.10;;;4.40;99.90;;;;;;4906957;29;20454;-91
2021/03/08 08:41:35;;;;;;;22.00;17.23;;;4.40;99.60;;;;;;4905316;29;20447;-92
2021/03/08 08:44:52;;;;;;;20.00;16.93;;;4.30;98.60;;;;;;4904494;29;20550;-94
2021/03/08 08:47:36;;;;;;;19.73;15.93;;;4.30;99.90;;;;;;4862258;29;20526;-96
2021/03/08 08:50:07;;;;;;;18.33;14.93;;;4.10;99.20;;;;;;4912005;29;20471;-92
2021/03/08 08:52:53;;;;;;;23.87;16.87;;;3.90;99.90;;;;;;4909308;29;20443;-95
2021/03/08 08:55:43;;;;;;;22.80;15.77;;;4.20;99.90;;;;;;4918483;29;20470;-96
2021/03/08 08:58:21;;;;;;;22.80;17.67;;;4.20;98.90;;;;;;4929543;29;20479;-96
2021/03/08 09:01:11;;;;;;;23.13;16.80;;;4.70;99.90;;;;;;4914914;29;20460;-96
2021/03/08 09:03:59;;;;;;;21.83;16.77;;;5.30;98.40;;;;;;4935530;28;20510;-85
2021/03/08 09:06:41;;;;;;;18.50;15.90;;;5.50;97.10;;;;;;4907963;29;20478;-91
2021/03/08 09:09:30;;;;;;;23.27;16.30;;;5.70;96.00;;;;;;4908616;29;20438;-87
2021/03/08 09:12:03;;;;;;;21.80;15.83;;;5.50;95.60;;;;;;4940174;29;20438;-86
2021/03/08 09:14:41;;;;;;;17.93;14.93;;;5.40;96.20;;;;;;4935932;29;20456;-87
2021/03/08 09:17:26;;;;;;;19.37;14.50;;;5.50;95.90;;;;;;4904472;29;20945;-87
2021/03/08 09:19:54;;;;;;;20.50;14.90;;;5.70;95.80;;;;;;4904849;29;20550;-88
2021/03/08 09:22:20;;;;;;;20.07;16.73;;;6.00;95.70;;;;;;4903232;29;20475;-89
2021/03/08 09:24:47;;;;;;;18.83;16.30;;;5.80;95.00;;;;;;4904452;29;20546;-89
2021/03/08 09:27:47;;;;;;;18.97;14.83;;;6.00;95.00;;;;;;4906610;29;20191;-90
2021/03/08 09:30:45;;;;;;;21.50;16.73;;;6.10;94.70;;;;;;4924012;29;21003;-88
2021/03/08 09:33:19;;;;;;;22.70;17.30;;;6.20;94.40;;;;;;4894194;29;20773;-94
2021/03/08 09:36:19;;;;;;;20.37;17.90;;;6.00;95.20;;;;;;4909655;29;21030;-96
2021/03/08 09:38:47;;;;;;;22.67;17.77;;;5.90;95.90;;;;;;4910734;29;20570;-96
2021/03/08 09:41:15;;;;;;;21.30;17.20;;;5.90;95.70;;;;;;5103808;23;20496;-96
2021/03/08 09:43:41;;;;;;;20.53;16.87;;;6.40;96.50;;;;;;5044036;23;20501;-96
2021/03/08 09:46:09;;;;;;;19.80;17.27;;;6.80;94.40;;;;;;4968953;28;20533;-94
2021/03/08 09:51:13;;;;;;;20.27;15.93;;;6.80;93.50;;;;;;5640605;23;20620;-94
2021/03/08 09:53:49;;;;;;;18.73;16.73;;;6.50;93.60;;;;;;4979077;28;20475;-95
2021/03/08 09:56:20;;;;;;;20.33;16.50;;;6.60;94.60;;;;;;4985997;28;20457;-92
2021/03/08 09:58:46;;;;;;;21.57;16.07;;;6.90;93.80;;;;;;4975801;28;20456;-94
2021/03/08 10:01:18;;;;;;;22.50;18.27;;;7.40;93.70;;;;;;4976826;28;21218;-96
2021/03/08 10:03:52;;;;;;;20.80;16.10;;;7.60;92.70;;;;;;4991171;28;20510;-96
2021/03/08 10:06:29;;;;;;;17.20;15.40;;;7.80;92.20;;;;;;5003720;23;20488;-95
2021/03/08 10:09:14;;;;;;;20.40;15.97;;;8.30;92.10;;;;;;4949775;28;20590;-95
2021/03/08 10:11:44;;;;;;;17.30;15.57;;;8.20;90.50;;;;;;4952658;29;20463;-95
2021/03/08 10:14:30;;;;;;;17.87;14.50;;;8.30;91.00;;;;;;4988544;23;21039;-94
2021/03/08 10:17:24;;;;;;;18.83;16.93;;;8.40;88.50;;;;;;4979642;28;20760;-93
2021/03/08 10:19:56;;;;;;;17.70;15.80;;;8.40;90.30;;;;;;4951709;28;20863;-95
2021/03/08 10:22:34;;;;;;;17.00;15.20;;;8.50;90.10;;;;;;4946902;28;20993;-93
2021/03/08 10:25:01;;;;;;;16.83;15.13;;;8.70;84.90;;;;;;4933426;28;20493;-96
2021/03/08 10:27:28;;;;;;;17.40;14.40;;;8.80;83.60;;;;;;4948831;28;20556;-96
2021/03/08 10:29:54;;;;;;;13.70;12.40;;;9.00;87.80;;;;;;4950835;28;20492;-94
2021/03/08 10:32:21;;;;;;;15.10;12.70;;;9.30;79.80;;;;;;4951736;28;20451;-96
2021/03/08 10:34:51;;;;;;;16.77;13.90;;;9.50;75.20;;;;;;4948851;28;20851;-96
2021/03/08 10:37:29;;;;;;;15.07;13.50;;;9.60;74.20;;;;;;4960304;28;20454;-96
2021/03/08 10:39:55;;;;;;;15.80;13.13;;;9.70;73.80;;;;;;4931778;28;20471;-96
2021/03/08 10:42:23;;;;;;;15.17;13.67;;;9.90;73.10;;;;;;4946072;28;20460;-94
2021/03/08 10:44:50;;;;;;;17.90;13.80;;;10.00;69.20;;;;;;4945822;28;20628;-94
2021/03/08 10:47:17;;;;;;;15.67;14.17;;;10.40;70.40;;;;;;4945728;28;20510;-93
2021/03/08 10:49:53;;;;;;;14.83;12.70;;;10.60;67.50;;;;;;4944830;28;20444;-93
2021/03/08 10:52:23;;;;;;;15.10;13.60;;;10.70;65.30;;;;;;4948922;28;20448;-95
2021/03/08 10:54:49;;;;;;;14.57;13.07;;;10.50;61.90;;;;;;4945361;28;20800;-95
2021/03/08 10:57:16;;;;;;;15.47;13.90;;;10.80;67.90;;;;;;4951580;28;20507;-94
2021/03/08 10:59:46;;;;;;;16.47;14.13;;;10.80;63.00;;;;;;4951877;28;20539;-94
2021/03/08 11:02:14;;;;;;;16.27;13.57;;;10.60;67.00;;;;;;4949284;28;20557;-94
2021/03/08 11:04:41;;;;;;;14.87;13.07;;;10.50;63.70;;;;;;4948420;28;20503;-95
2021/03/08 11:07:07;;;;;;;13.67;12.33;;;10.50;61.10;;;;;;4949352;28;20452;-96
2021/03/08 11:09:36;;;;;;;14.07;12.57;;;10.40;65.90;;;;;;4952041;28;20448;-96
2021/03/08 11:12:02;;;;;;;15.07;13.60;;;10.60;59.00;;;;;;4952828;28;20202;-94
2021/03/08 11:14:28;;;;;;;16.50;14.17;;;10.80;56.70;;;;;;4966526;28;20473;-93
2021/03/08 11:16:58;;;;;;;18.20;14.30;;;10.80;59.60;;;;;;4950122;28;20460;-95
2021/03/08 11:19:26;;;;;;;15.40;13.37;;;11.00;58.00;;;;;;4951788;28;20431;-94
2021/03/08 11:22:14;;;;;;;15.40;13.80;;;10.90;57.70;;;;;;4948179;28;20484;-93
2021/03/08 11:24:51;;;;;;;17.73;14.13;;;10.80;59.00;;;;;;4945992;28;20452;-95
2021/03/08 11:27:27;;;;;;;16.50;13.83;;;11.00;56.50;;;;;;4962028;28;20556;-89
2021/03/08 11:30:17;;;;;;;14.87;13.20;;;11.10;56.40;;;;;;4958701;28;20448;-93
2021/03/08 11:32:42;;;;;;;17.63;14.20;;;10.90;58.30;;;;;;4946866;28;20433;-95
2021/03/08 11:35:29;;;;;;;14.30;12.80;;;10.90;60.90;;;;;;4947628;28;20457;-91
2021/03/08 11:38:06;;;;;;;16.37;13.97;;;11.00;54.70;;;;;;4943823;28;21243;-92
2021/03/08 11:40:33;;;;;;;15.90;14.20;;;11.30;57.30;;;;;;4946451;28;20454;-92
2021/03/08 11:42:59;;;;;;;15.87;13.37;;;11.70;52.70;;;;;;4945393;28;20449;-93
2021/03/08 11:45:27;;;;;;;15.17;13.57;;;12.10;51.20;;;;;;4949595;28;20821;-92
2021/03/08 11:47:54;;;;;;;16.23;14.60;;;12.40;51.30;;;;;;4946225;28;20460;-92
2021/03/08 11:50:22;;;;;;;25.20;22.53;;;12.20;52.20;;;;;;4950203;28;20442;-93
2021/03/08 11:55:25;;;;;;;14.03;12.73;;;12.30;51.50;;;;;;5153779;23;20510;-91
2021/03/08 17:21:19;;;;;;;6.77;5.37;;;6.30;50.90;;;;;;4925289;28;20548;-91
2021/03/08 17:23:47;;;;;;;7.07;4.60;;;6.20;52.00;;;;;;4920829;29;20510;-92
2021/03/08 17:26:30;;;;;;;6.43;4.67;;;6.10;53.70;;;;;;4914755;29;20457;-91
2021/03/08 17:29:03;;;;;;;5.70;5.07;;;5.90;55.80;;;;;;4903358;29;20821;-96
2021/03/08 19:56:47;;;;;;;7.20;5.30;;;3.60;97.60;;;;;;3115706;23;20792;31
2021/03/08 19:59:13;;;;;;;6.83;4.87;;;3.60;97.90;;;;;;4876896;29;20480;-95
2021/03/08 20:01:39;;;;;;;7.20;5.63;;;3.70;98.20;;;;;;4864555;29;20960;-92
2021/03/08 20:04:05;;;;;;;6.87;4.93;;;3.60;98.30;;;;;;4870456;29;20264;-91
2021/03/08 20:06:34;;;;;;;6.77;5.50;;;3.50;98.80;;;;;;4890946;29;21471;-96
2021/03/08 20:14:10;;;;;;;10.60;9.23;;;3.50;99.10;;;;;;5547805;23;20513;-96
2021/03/08 20:19:24;;;;;;;16.07;12.43;;;3.30;99.90;;;;;;5240035;23;20236;-96
2021/03/08 20:21:50;;;;;;;25.63;14.53;;;3.20;99.80;;;;;;4953878;23;20485;-95
2021/03/08 20:24:16;;;;;;;7.83;6.10;;;3.10;99.80;;;;;;4904767;29;20441;-95
2021/03/08 20:26:42;;;;;;;8.70;5.90;;;3.10;99.80;;;;;;4894603;29;20469;-92
2021/03/08 20:29:08;;;;;;;9.70;5.40;;;3.10;99.80;;;;;;4883189;29;20450;-92
2021/03/08 20:31:54;;;;;;;8.47;5.23;;;3.10;99.70;;;;;;4927713;29;20216;-96
2021/03/08 20:39:28;;;;;;;9.20;6.20;;;3.00;99.90;;;;;;4897500;29;20495;-95
2021/03/08 20:41:54;;;;;;;7.43;5.50;;;3.00;99.90;;;;;;4891653;29;20815;-92
2021/03/08 20:44:20;;;;;;;7.60;5.27;;;2.90;99.90;;;;;;4886479;29;20514;-94
2021/03/08 20:46:47;;;;;;;7.63;5.90;;;2.90;99.90;;;;;;4888688;29;20647;-93
2021/03/08 20:49:13;;;;;;;8.07;5.90;;;2.80;99.90;;;;;;4890435;29;20470;-93
2021/03/08 20:51:39;;;;;;;9.33;5.73;;;2.80;99.90;;;;;;4887013;29;20456;-94
2021/03/08 20:54:05;;;;;;;7.10;5.07;;;2.70;99.90;;;;;;4888335;29;20563;-93
2021/03/08 20:56:30;;;;;;;7.63;5.50;;;2.60;99.90;;;;;;4886339;29;20485;-94
2021/03/08 20:58:56;;;;;;;7.30;5.60;;;2.50;99.90;;;;;;4888675;29;20564;-94